EDT,Max TemperatureF,Mean TemperatureF,Min TemperatureF,Max Dew PointF,MeanDew PointF,Min DewpointF,Max Humidity, Mean Humidity, Min Humidity, Max Sea Level PressureIn, Mean Sea Level PressureIn, Min Sea Level PressureIn, Max VisibilityMiles, Mean VisibilityMiles, Min VisibilityMiles, Max Wind SpeedMPH, Mean Wind SpeedMPH, Max Gust SpeedMPH,PrecipitationIn, CloudCover, Events, WindDirDegrees
2011-10-1,59,52,44,55,48,42,93,88,83,30.00,29.85,29.75,10,7,3,20,9,23,0.07,7,Rain,7
2011-10-2,56,51,45,52,49,44,100,92,83,30.11,30.04,30.00,10,7,2,15,7,22,0.42,8,Rain,29
2011-10-3,58,54,49,54,51,48,100,93,86,30.14,30.07,29.99,10,6,2,9,2,13,0.36,8,Rain,21
2011-10-4,54,50,46,52,49,45,100,95,89,30.13,30.05,29.94,10,4,1,17,7,22,0.41,8,Rain,43
2011-10-5,49,43,36,45,38,26,96,75,53,30.02,29.89,29.82,10,10,6,28,12,39,T,7,Rain,350
2011-10-6,46,35,24,25,23,19,85,61,37,30.28,30.15,30.04,10,10,10,24,9,33,0.00,3,,332
2011-10-7,54,38,21,35,26,19,96,63,30,30.40,30.32,30.24,10,10,10,15,4,22,0.00,0,,246
2011-10-8,77,56,35,54,46,33,93,67,40,30.24,30.18,30.13,10,10,10,15,6,20,0.00,0,,237
2011-10-9,82,69,55,53,50,47,65,48,30,30.16,30.09,30.02,10,10,10,15,6,21,0.00,0,,266
2011-10-10,69,58,46,54,41,30,78,52,25,30.14,30.04,29.98,10,10,9,22,9,29,0.00,0,,318
2011-10-11,58,45,31,38,35,30,100,70,40,30.30,30.24,30.14,10,10,10,14,4,20,0.00,0,,358
2011-10-12,60,45,30,43,36,28,100,74,47,30.34,30.27,30.19,10,10,10,12,4,16,0.00,0,,169
2011-10-13,57,49,40,55,48,39,100,92,83,30.18,30.06,29.94,10,7,1,10,4,17,0.08,7,Rain,115
2011-10-14,63,60,56,61,58,55,100,92,84,29.92,29.72,29.37,10,5,1,16,9,24,0.58,8,Rain,94
2011-10-15,65,57,49,63,55,41,100,77,53,29.46,29.33,29.21,10,8,2,23,11,39,0.29,7,Rain,170
2011-10-16,57,49,40,42,40,36,85,70,54,29.61,29.54,29.46,10,10,10,21,8,29,T,5,Rain,210
2011-10-17,56,49,42,45,41,33,100,73,46,29.62,29.50,29.42,10,6,1,22,5,26,0.27,7,Rain,230
2011-10-18,57,49,41,42,39,37,93,72,51,29.92,29.75,29.62,10,10,10,18,6,25,T,5,,217
2011-10-19,61,49,36,45,42,35,92,72,51,30.11,30.05,29.94,10,10,9,10,3,16,0.04,2,Rain,130
2011-10-20,55,51,47,54,48,45,100,93,86,29.97,29.72,29.55,10,6,2,24,11,37,0.28,8,Rain,80
2011-10-21,57,51,44,51,46,43,93,77,61,29.84,29.69,29.57,10,10,9,16,7,22,T,7,Rain,207
2011-10-22,52,46,39,47,44,40,93,82,71,29.97,29.92,29.86,10,10,10,8,2,10,0.02,7,Rain,205
2011-10-23,56,50,44,43,41,38,92,73,54,30.10,30.04,29.97,10,10,10,12,2,15,0.00,7,,286
2011-10-24,55,49,42,41,38,34,96,71,46,30.12,30.05,29.91,10,10,10,12,3,16,0.00,5,,172
2011-10-25,52,47,41,46,42,36,100,86,71,29.90,29.77,29.67,10,8,4,16,6,22,0.17,7,Rain,239
2011-10-26,50,40,30,36,30,25,82,64,46,29.77,29.75,29.72,10,10,10,17,8,24,0.00,2,,305
2011-10-27,43,36,28,27,25,24,78,65,51,29.79,29.75,29.71,10,10,10,12,4,15,0.00,1,,328
2011-10-28,43,35,27,25,22,19,81,61,41,30.12,29.93,29.78,10,10,10,20,7,28,T,5,,286
2011-10-29,43,34,24,28,25,21,84,67,49,30.26,30.18,30.01,10,10,10,14,5,21,T,1,,331
2011-10-30,36,34,31,32,30,26,100,88,75,30.08,29.88,29.78,10,4,0,22,13,31,0.26,8,Fog-Snow,360
2011-10-31,45,36,26,28,25,22,100,73,45,30.39,30.28,30.11,10,10,8,13,4,16,0.00,0,,263